createdAt,value
2019-04-29T00:04:06.220Z,97442.55
2019-04-29T00:09:02.048Z,97443.21
2019-04-29T00:13:58.133Z,97451.41
2019-04-29T00:19:11.460Z,97450.66
2019-04-29T00:24:07.637Z,97455.87
2019-04-29T00:29:03.375Z,97458.33
2019-04-29T00:33:59.115Z,97462.20
2019-04-29T00:39:26.032Z,97465.55
2019-04-29T00:44:22.058Z,97469.97
2019-04-29T00:49:17.851Z,97475.56
2019-04-29T00:54:26.476Z,97475.88
2019-04-29T00:59:22.247Z,97473.08
2019-04-29T01:04:18.223Z,97472.52
2019-04-29T01:09:14.796Z,97466.79
2019-04-29T01:14:10.611Z,97469.16
2019-04-29T01:19:06.434Z,97467.02
2019-04-29T01:24:02.289Z,97461.31
2019-04-29T01:28:58.825Z,97457.81
2019-04-29T01:33:58.773Z,97462.99
2019-04-29T01:38:56.238Z,97456.94
2019-04-29T01:44:02.519Z,97456.71
2019-04-29T01:48:58.761Z,97467.55
2019-04-29T01:53:54.521Z,97466.53
2019-04-29T01:58:50.471Z,97474.20
2019-04-29T02:03:46.261Z,97474.05
2019-04-29T02:08:42.243Z,97471.39
2019-04-29T02:13:38.224Z,97470.23
2019-04-29T02:18:33.997Z,97467.80
2019-04-29T02:23:38.363Z,97462.65
2019-04-29T02:28:34.132Z,97462.80
2019-04-29T02:33:30.159Z,97452.55
2019-04-29T02:38:41.396Z,97461.56
2019-04-29T02:43:38.902Z,97462.93
2019-04-29T02:48:35.181Z,97467.30
2019-04-29T02:53:30.969Z,97465.94
2019-04-29T02:58:33.302Z,97471.84
2019-04-29T03:03:41.838Z,97467.38
2019-04-29T03:08:37.577Z,97467.30
2019-04-29T03:13:33.322Z,97459.28
2019-04-29T03:18:31.592Z,97460.23
2019-04-29T03:23:27.810Z,97462.46
2019-04-29T03:28:23.569Z,97467.77
2019-04-29T03:33:19.319Z,97471.69
2019-04-29T03:38:15.193Z,97471.69
2019-04-29T03:43:11.006Z,97477.34
2019-04-29T03:48:06.849Z,97474.80
2019-04-29T03:53:02.624Z,97472.82
2019-04-29T03:57:58.337Z,97473.80
2019-04-29T04:03:12.025Z,97478.59
2019-04-29T04:08:17.443Z,97480.27
2019-04-29T04:13:13.132Z,97482.61
2019-04-29T04:18:15.162Z,97479.37
2019-04-29T04:23:11.207Z,97485.50
2019-04-29T04:28:07.105Z,97483.69
2019-04-29T04:33:02.848Z,97486.81
2019-04-29T04:37:58.675Z,97486.77
2019-04-29T04:42:54.536Z,97487.46
2019-04-29T04:47:50.252Z,97477.04
2019-04-29T04:52:49.066Z,97487.31
2019-04-29T04:57:44.915Z,97490.67
2019-04-29T05:02:40.685Z,97508.84
2019-04-29T05:07:36.423Z,97515.53
2019-04-29T05:12:32.178Z,97512.22
2019-04-29T05:17:27.933Z,97518.04
2019-04-29T05:22:23.706Z,97506.91
2019-04-29T05:27:19.473Z,97516.33
2019-04-29T05:32:15.241Z,97519.63
2019-04-29T05:37:18.863Z,97518.28
2019-04-29T05:42:16.997Z,97513.16
2019-04-29T05:47:25.453Z,97516.57
2019-04-29T05:52:41.147Z,97520.50
2019-04-29T05:57:36.911Z,97523.61
2019-04-29T06:02:36.344Z,97538.79
2019-04-29T06:07:30.104Z,97550.42
2019-04-29T06:12:26.087Z,97555.67
2019-04-29T06:17:21.864Z,97559.33
2019-04-29T06:22:17.644Z,97564.66
2019-04-29T06:27:13.417Z,97564.42
2019-04-29T06:32:09.141Z,97567.84
2019-04-29T06:37:07.445Z,97581.07
2019-04-29T06:42:04.313Z,97576.43
2019-04-29T06:47:00.130Z,97584.02
2019-04-29T06:51:56.018Z,97580.06
2019-04-29T06:56:51.806Z,97571.78
2019-04-29T07:01:48.713Z,97577.84
2019-04-29T07:06:56.649Z,97576.87
2019-04-29T07:11:42.314Z,97576.92
2019-04-29T07:16:38.026Z,97580.70
2019-04-29T07:21:33.798Z,97582.33
2019-04-29T07:26:31.894Z,97579.41
2019-04-29T07:31:28.464Z,97587.09
2019-04-29T07:36:25.216Z,97588.83
2019-04-29T07:41:20.968Z,97590.38
2019-04-29T07:46:23.674Z,97586.25
2019-04-29T07:51:19.488Z,97588.72
2019-04-29T07:56:15.365Z,97587.25
2019-04-29T08:01:11.141Z,97590.17
2019-04-29T08:06:06.995Z,97591.78
2019-04-29T08:11:06.998Z,97591.98
2019-04-29T08:16:02.735Z,97587.31
2019-04-29T08:20:59.494Z,97596.11
2019-04-29T08:25:57.507Z,97597.05
2019-04-29T08:30:52.808Z,97597.98
2019-04-29T08:35:48.507Z,97597.81
2019-04-29T08:40:45.311Z,97601.64
2019-04-29T08:45:48.497Z,97588.83
2019-04-29T08:50:44.226Z,97595.47
2019-04-29T08:55:40.103Z,97596.94
2019-04-29T09:00:35.932Z,97598.07
2019-04-29T09:05:31.710Z,97593.45
2019-04-29T09:10:27.441Z,97591.72
2019-04-29T09:15:23.474Z,97589.23
2019-04-29T09:20:20.513Z,97589.22
2019-04-29T09:25:33.549Z,97583.20
2019-04-29T09:30:31.266Z,97576.84
2019-04-29T09:35:28.741Z,97574.32
2019-04-29T09:40:26.419Z,97574.05
2019-04-29T09:45:43.916Z,97571.80
2019-04-29T09:50:41.007Z,97569.13
2019-04-29T09:55:39.888Z,97555.85
2019-04-29T10:00:50.454Z,97560.28
2019-04-29T10:05:48.814Z,97557.27
2019-04-29T10:10:45.321Z,97552.70
2019-04-29T10:15:48.308Z,97544.63
2019-04-29T10:20:50.570Z,97536.02
2019-04-29T10:25:46.501Z,97531.30
2019-04-29T10:30:44.261Z,97529.97
2019-04-29T10:35:40.808Z,97520.48
2019-04-29T10:40:45.252Z,97513.52
2019-04-29T10:45:58.540Z,97508.81
2019-04-29T10:50:56.078Z,97498.94
2019-04-29T10:55:51.950Z,97499.00
2019-04-29T11:02:13.629Z,97491.66
2019-04-29T11:07:19.049Z,97491.77
2019-04-29T11:12:18.097Z,97482.48
2019-04-29T12:22:49.783Z,97461.45
2019-04-29T12:27:45.667Z,97454.11
2019-04-29T12:32:48.522Z,97452.15
2019-04-29T12:38:10.834Z,97441.61
2019-04-29T12:43:21.385Z,97442.33
2019-04-29T12:48:24.377Z,97443.62
2019-04-29T12:53:14.978Z,97434.08
2019-04-29T12:58:10.780Z,97432.34
2019-04-29T13:03:14.368Z,97431.77
2019-04-29T13:08:16.231Z,97434.88
2019-04-29T13:13:15.847Z,97431.67
2019-04-29T13:18:23.117Z,97432.38
2019-04-29T13:23:19.466Z,97430.25
2019-04-29T13:28:09.999Z,97423.48
2019-04-29T13:33:15.826Z,97425.11
2019-04-29T13:38:03.607Z,97429.02
2019-04-29T13:42:59.419Z,97432.47
2019-04-29T13:48:15.022Z,97430.45
2019-04-29T13:53:15.936Z,97430.25
2019-04-29T13:58:08.449Z,97427.53
2019-04-29T14:03:12.768Z,97420.42
2019-04-29T14:08:17.647Z,97408.16
2019-04-29T14:13:17.615Z,97403.14
2019-04-29T14:18:11.563Z,97404.33
2019-04-29T14:23:07.878Z,97407.88
2019-04-29T14:28:03.618Z,97408.41
2019-04-29T14:33:01.997Z,97405.34
2019-04-29T14:38:04.321Z,97411.63
2019-04-29T14:43:28.727Z,97405.94
2019-04-29T14:48:26.446Z,97407.56
2019-04-29T14:53:24.205Z,97418.33
2019-04-29T14:58:19.813Z,97416.97
2019-04-29T15:03:15.670Z,97421.88
2019-04-29T15:08:11.642Z,97412.62
2019-04-29T15:13:20.712Z,97407.09
2019-04-29T15:18:46.126Z,97414.63
2019-04-29T15:23:28.671Z,97413.76
2019-04-29T15:28:25.426Z,97414.59
2019-04-29T15:33:21.254Z,97416.68
2019-04-29T15:38:17.172Z,97413.51
2019-04-29T15:43:13.264Z,97414.18
2019-04-29T15:48:09.069Z,97412.73
2019-04-29T15:53:04.934Z,97417.65
2019-04-29T15:58:00.837Z,97415.73
2019-04-29T16:02:56.891Z,97421.42
2019-04-29T16:08:01.280Z,97415.44
2019-04-29T16:13:01.021Z,97417.84
2019-04-29T16:17:56.720Z,97406.88
2019-04-29T16:22:54.304Z,97405.56
2019-04-29T16:27:53.363Z,97401.81
2019-04-29T16:32:47.535Z,97408.89
2019-04-29T16:37:43.294Z,97408.34
2019-04-29T16:42:49.618Z,97412.86
2019-04-29T16:47:47.593Z,97418.44
2019-04-29T16:52:44.571Z,97418.22
2019-04-29T16:57:40.751Z,97418.53
2019-04-29T17:02:36.571Z,97417.16
2019-04-29T17:07:32.362Z,97409.81
2019-04-29T17:12:36.204Z,97417.13
2019-04-29T17:17:29.660Z,97410.43
2019-04-29T17:22:28.251Z,97423.08
2019-04-29T17:27:44.487Z,97416.84
2019-04-29T17:33:08.593Z,97417.11
2019-04-29T17:38:04.875Z,97414.28
2019-04-29T17:43:19.614Z,97413.59
2019-04-29T17:48:28.213Z,97417.37
2019-04-29T17:53:30.915Z,97409.05
2019-04-29T17:58:32.070Z,97413.84
2019-04-29T18:03:42.785Z,97421.13
2019-04-29T18:08:44.880Z,97424.69
2019-04-29T18:13:40.887Z,97416.86
2019-04-29T18:19:07.508Z,97424.83
2019-04-29T18:24:21.030Z,97422.87
2019-04-29T18:30:18.537Z,97431.37
2019-04-29T18:48:16.967Z,97443.23
2019-04-29T18:53:11.811Z,97440.48
2019-04-29T18:58:07.691Z,97448.39
2019-04-29T19:03:03.548Z,97451.01
2019-04-29T19:08:11.220Z,97453.05
2019-04-29T19:13:00.247Z,97458.00
2019-04-29T19:17:59.802Z,97457.08
2019-04-29T19:23:05.139Z,97464.44
2019-04-29T19:27:50.842Z,97467.05
2019-04-29T19:32:46.969Z,97468.52
2019-04-29T19:37:42.907Z,97471.17
2019-04-29T19:42:39.840Z,97468.20
2019-04-29T19:47:36.523Z,97471.91
2019-04-29T19:52:32.433Z,97472.28
2019-04-29T19:57:28.264Z,97477.98
2019-04-29T20:02:25.997Z,97487.95
2019-04-29T20:07:23.218Z,97486.81
2019-04-29T20:12:19.568Z,97495.44
2019-04-29T20:19:51.169Z,97493.30
2019-04-29T20:24:01.571Z,97496.38
2019-04-29T20:28:57.656Z,97493.76
2019-04-29T20:38:55.106Z,97478.66
2019-04-29T20:43:51.009Z,97480.53
2019-04-29T20:48:50.428Z,97473.69
2019-04-29T20:53:49.156Z,97468.09
2019-04-29T20:58:46.910Z,97464.44
2019-04-29T21:03:46.237Z,97466.58
2019-04-29T21:08:40.287Z,97463.81
2019-04-29T21:13:58.277Z,97463.71
2019-04-29T21:18:56.881Z,97468.30
2019-04-29T21:23:52.632Z,97463.07
2019-04-29T21:28:48.469Z,97460.52
2019-04-29T21:33:45.615Z,97459.31
2019-04-29T21:39:01.712Z,97465.47
2019-04-29T21:43:57.123Z,97459.42
2019-04-29T21:48:52.852Z,97450.91
2019-04-29T21:53:48.607Z,97446.62
2019-04-29T21:58:44.529Z,97439.78
2019-04-29T22:03:40.445Z,97443.44
2019-04-29T22:08:36.210Z,97437.57
2019-04-29T22:13:35.461Z,97437.17
2019-04-29T22:18:29.737Z,97439.61
2019-04-29T22:23:25.658Z,97440.75
2019-04-29T22:28:21.381Z,97436.84
2019-04-29T22:33:17.246Z,97437.38
2019-04-29T23:10:00.841Z,97432.70
2019-04-29T23:22:42.202Z,97433.72
2019-04-29T23:27:39.662Z,97429.16
2019-04-29T23:32:39.551Z,97415.36
2019-04-29T23:38:22.389Z,97406.05
2019-04-29T23:44:42.383Z,97405.17
2019-04-29T23:49:47.832Z,97396.20
2019-04-29T23:56:09.388Z,97391.21
